Weather observations for the past three days for
Iowa City Municipal Airport
Imperial (Metric)
Date Time (cdt) Wind (mph) Vis. (mi.) Weather Sky Cond. Temperature (ºF) Relative Humidity Wind Chill (°F) Heat Index (°F) Pressure Precipitation (in)
Air Dwpt 6 hour altimeter (in) sea level (mb) 1 hr 3 hr 6 hr
Max. Min.
31 04:52 S 9 10.00 Fair CLR 75 68 79% 76 29.88 1011.3
31 03:52 S 9 10.00 Fair CLR 75 68 79% 76 29.89 1011.4
31 02:52 S 8 10.00 Fair CLR 75 68 79% 76 29.88 1011.3
31 01:52 S 8 10.00 Fair CLR 75.9 68 77% 77 29.89 1011.6
31 00:52 S 9 10.00 Fair CLR 77 69.1 81 75.9 77% 79 29.9 1011.8
30 23:52 S 7 10.00 Fair CLR 77 71.1 82% 79 29.89 1011.7
30 22:52 SE 8 10.00 Fair CLR 78.1 72 82% 80 29.9 1012.1
30 21:52 SE 6 10.00 Fair CLR 77 73.9 90% 78 29.91 1012.2
30 20:52 SE 7 10.00 Fair CLR 77 73.9 90% 78 29.91 1012.1
30 19:52 SE 6 10.00 Fair CLR 78.1 73.9 87% 81 29.89 1011.7
30 18:52 SE 8 10.00 Fair CLR 81 73.9 82 75 79% 86 29.89 1011.7 0.02
30 17:52 SE 9 10.00 Fair CLR 81 72 74% 85 29.9 1012.1
30 16:52 SE 7 10.00 Fair CLR 81 71.1 72% 85 29.91 1012.1
30 15:52 SE 9 10.00 A Few Clouds FEW120 78.1 71.1 79% 80 29.92 1012.5 0.02
30 14:52 E 5 10.00 Mostly Cloudy BKN110 75.9 71.1 85% 76 29.95 1013.6 0.02
30 13:52 SE 8 10.00 Mostly Cloudy BKN110 77 70 79% 79 29.95 1013.6
30 12:52 E 7 10.00 Partly Cloudy SCT100 78.1 70 80.1 72 76% 80 29.96 1013.9 0.01 0.01
30 11:52 SE 6 10.00 Mostly Cloudy BKN110 77 66.9 71% 79 29.94 1013.4
30 10:52 S 10 G 20 10.00 Overcast OVC110 79 64.9 62% 81 29.93 1012.9
30 09:52 S 14 G 28 10.00 Mostly Cloudy BKN110 78.1 64 62% 80 29.9 1012.1
30 08:52 S 12 10.00 Partly Cloudy SCT110 75.9 64 67% 78 29.89 1011.7
30 07:52 S 8 10.00 A Few Clouds FEW110 73 63 71% 29.9 1011.9
30 06:52 S 7 10.00 Partly Cloudy SCT100 73 62.1 75 72 69% 29.9 1011.8
30 05:52 S 9 10.00 Overcast OVC110 73 62.1 69% 29.89 1011.7
30 04:52 S 9 10.00 Overcast OVC110 73.9 62.1 67% 29.9 1012.0
30 03:52 S 8 10.00 Overcast OVC110 73 63 71% 29.9 1012.1
30 02:52 S 10 10.00 Overcast OVC110 73.9 63 69% 29.9 1012.0
30 01:52 S 12 10.00 Overcast OVC110 75 63 66% 77 29.91 1012.3
30 00:52 S 10 10.00 Mostly Cloudy BKN110 75 64 79 73.9 69% 77 29.92 1012.7
29 23:52 S 8 10.00 Fair CLR 73.9 66 76% 29.93 1012.9
29 22:52 S 9 10.00 A Few Clouds FEW090 75.9 66 72% 77 29.93 1013.1
29 21:52 S 9 10.00 Fair CLR 75.9 66.9 74% 77 29.93 1013.1
29 20:52 S 9 10.00 Fair CLR 77 66.9 71% 79 29.92 1012.8
29 19:52 S 14 10.00 Fair CLR 77 66.9 71% 79 29.9 1012.0
29 18:52 S 14 10.00 A Few Clouds FEW080 79 68 82 72 69% 81 29.9 1012.1
29 17:52 S 14 G 24 10.00 Fair CLR 81 66 61% 83 29.92 1012.6
29 16:52 S 14 G 22 10.00 Fair CLR 80.1 69.1 69% 83 29.93 1013.0
29 15:52 S 15 10.00 A Few Clouds FEW110 75 68 79% 76 29.96 1014.2
29 14:52 SE 14 G 21 10.00 Light Rain FEW037 SCT046 SCT060 73 66.9 81% 29.99 1015.3
29 13:52 S 13 10.00 Mostly Cloudy FEW060 SCT085 BKN110 73 66.9 81% 30.04 1016.8
29 12:52 SE 6 10.00 Mostly Cloudy FEW070 BKN100 BKN120 72 66.9 72 64 84% 30.08 1018.2
29 11:52 SE 6 10.00 A Few Clouds FEW120 71.1 64.9 81% 30.09 1018.4
29 10:52 SE 5 10.00 Partly Cloudy FEW042 SCT049 70 64 82% 30.1 1019.0
29 09:52 E 5 10.00 Fair CLR 69.1 63 81% 30.11 1019.3
29 08:52 SE 3 10.00 Partly Cloudy SCT070 66.9 62.1 84% 30.11 1019.3
29 07:52 SE 5 10.00 Fair CLR 64.9 62.1 90% 30.1 1018.9
29 06:52 Calm 10.00 Fair CLR 64 60.1 66 62.1 87% 30.09 1018.6
29 05:52 Calm 10.00 Fair CLR 64 61 90% 30.09 1018.6
29 04:52 Calm 10.00 Fair CLR 63 61 93% 30.08 1018.3
29 03:52 Calm 9.00 Fair CLR 64 62.1 93% 30.09 1018.6
29 02:52 Calm 10.00 Fair CLR 64.9 62.1 90% 30.09 1018.6
29 01:52 Calm 10.00 Fair CLR 64.9 62.1 90% 30.1 1018.8
29 00:52 Calm 10.00 Fair CLR 66 62.1 79 66 87% 30.1 1018.9
28 23:52 Calm 9.00 Fair CLR 66.9 62.1 84% 30.11 1019.0
28 22:52 Calm 8.00 Fair CLR 66 63 90% 30.1 1018.9
28 21:52 Calm 10.00 Fair CLR 66.9 62.1 84% 30.1 1018.9
28 20:52 Calm 10.00 Fair CLR 72 64 76% 30.1 1018.9
28 19:52 S 3 10.00 Fair CLR 73.9 64 71% 30.09 1018.6
28 18:52 SW 5 10.00 Fair CLR 79 63 84 79 58% 81 30.09 1018.6
28 17:52 SW 5 10.00 Fair CLR 81 61 51% 82 30.1 1019.0
28 16:52 S 5 10.00 Fair CLR 82.9 60.1 46% 83 30.1 1019.0
28 15:52 SW 3 10.00 Fair CLR 82.9 60.1 46% 83 30.11 1019.3
28 14:52 S 7 10.00 A Few Clouds FEW055 84 59 43% 84 30.12 1019.5
28 13:52 S 7 10.00 Mostly Cloudy BKN050 82.9 60.1 46% 83 30.14 1020.3
28 12:52 SW 8 10.00 A Few Clouds FEW049 82 59 82.9 61 46% 82 30.16 1020.8
28 11:52 W 7 10.00 A Few Clouds FEW045 81 62.1 53% 82 30.17 1021.1
28 10:52 SW 8 10.00 Fair CLR 79 63 58% 81 30.18 1021.6
28 09:52 Vrbl 3 10.00 Fair CLR 75.9 63 64% 78 30.17 1021.4
28 08:52 Calm 10.00 Fair CLR 71.1 64 79% 30.17 1021.3
28 07:52 Calm 8.00 Fair CLR 64.9 62.1 90% 30.16 1020.9
28 06:52 Calm 8.00 Fair CLR 61 59 64 60.1 93% 30.14 1020.4
28 05:52 Calm 8.00 Partly Cloudy SCT060 60.1 59 96% 30.13 1020.1
Date Time (cdt) Wind (mph) Vis. (mi.) Weather Sky Cond. Air Dwpt Max. Min. Relative Humidity Wind Chill (°F) Heat Index (°F) altimeter (in) sea level (mb) 1 hr 3 hr 6 hr
6 hour
Temperature (ºF) Pressure Precipitation (in)